createdAt,value
2023-01-06T05:18:50.726Z,14.09
2023-01-06T09:18:28.482Z,13.99
2023-01-06T09:20:30.072Z,14.03
2023-01-06T09:22:31.988Z,14.09
2023-01-06T09:24:33.658Z,13.93
2023-01-06T09:26:35.204Z,13.88
2023-01-06T09:28:36.833Z,13.97
2023-01-06T09:30:38.533Z,14.02
2023-01-06T09:32:40.116Z,14.03
2023-01-06T09:34:43.103Z,13.97
2023-01-06T09:36:45.213Z,14.03
2023-01-06T09:38:46.862Z,14.09
2023-01-06T09:41:04.390Z,14.16
2023-01-06T09:43:17.052Z,14.21
2023-01-06T09:45:20.792Z,14.21
2023-01-06T09:47:32.345Z,14.22
2023-01-06T09:49:42.104Z,14.14
2023-01-06T09:51:45.734Z,14.10
2023-01-06T09:53:54.561Z,14.20
2023-01-06T09:55:59.408Z,14.17
2023-01-06T09:58:05.873Z,14.22
2023-01-06T10:00:19.660Z,14.23
2023-01-06T10:02:26.397Z,14.17
2023-01-06T10:04:29.791Z,14.14
2023-01-06T10:06:36.465Z,14.13
2023-01-06T10:08:48.736Z,14.06
2023-01-06T10:11:02.574Z,14.12
2023-01-06T10:13:21.461Z,14.24
2023-01-06T10:15:33.441Z,14.27
2023-01-06T10:17:50.300Z,14.32
2023-01-06T10:20:02.918Z,14.34
2023-01-06T10:22:09.213Z,14.35
2023-01-06T10:24:34.047Z,14.39
2023-01-06T10:26:43.756Z,14.42
2023-01-06T10:28:47.733Z,14.42
2023-01-06T10:30:52.784Z,14.43
2023-01-06T10:32:54.400Z,14.41
2023-01-06T10:34:57.691Z,14.41
2023-01-06T10:37:06.597Z,14.40
2023-01-06T10:39:16.481Z,14.46
2023-01-06T10:41:26.679Z,14.51
2023-01-06T10:43:28.373Z,14.47
2023-01-06T10:45:34.263Z,14.49
2023-01-06T10:47:35.928Z,14.54
2023-01-06T10:49:37.829Z,14.49
2023-01-06T10:51:41.041Z,14.50
2023-01-06T10:53:43.045Z,14.57
2023-01-06T10:55:53.084Z,14.60
2023-01-06T10:57:59.959Z,14.61
2023-01-06T11:00:16.702Z,14.50
2023-01-06T11:02:24.642Z,14.55
2023-01-06T11:04:27.632Z,14.64
2023-01-06T11:06:30.461Z,14.60
2023-01-06T11:08:32.635Z,15.00
2023-01-06T11:10:40.338Z,14.84
2023-01-06T11:12:45.950Z,14.81
2023-01-06T11:14:55.666Z,14.86
2023-01-06T11:17:00.099Z,14.96
2023-01-06T11:19:04.789Z,15.02
2023-01-06T11:21:09.541Z,14.98
2023-01-06T11:23:20.985Z,15.03
2023-01-06T11:25:26.100Z,15.13
2023-01-06T11:27:27.773Z,15.20
2023-01-06T11:29:32.975Z,15.10
2023-01-06T11:31:34.760Z,15.17
2023-01-06T11:33:46.088Z,15.23
2023-01-06T11:35:48.643Z,15.14
2023-01-06T11:37:57.918Z,15.20
2023-01-06T11:40:10.309Z,15.18
2023-01-06T11:42:14.514Z,15.24
2023-01-06T11:44:20.668Z,15.02
2023-01-06T11:46:25.610Z,15.06
2023-01-06T11:48:31.203Z,15.06
2023-01-06T11:50:32.970Z,15.02
2023-01-06T11:52:34.609Z,15.00
2023-01-06T11:54:38.968Z,15.04
2023-01-06T11:56:40.689Z,15.02
2023-01-06T11:58:54.402Z,14.99
2023-01-06T12:01:01.893Z,14.99
2023-01-06T12:03:14.104Z,15.00
2023-01-06T12:05:25.490Z,15.00
2023-01-06T12:07:32.777Z,15.07
2023-01-06T12:09:38.793Z,15.07
2023-01-06T12:11:46.181Z,15.07
2023-01-06T12:14:08.320Z,15.10
2023-01-06T12:16:17.258Z,15.12
2023-01-06T12:18:24.084Z,15.05
2023-01-06T12:20:28.960Z,14.99
2023-01-06T12:22:37.109Z,14.98
2023-01-06T12:24:39.669Z,14.92
2023-01-06T12:26:43.386Z,14.86
2023-01-06T12:28:47.379Z,14.90
2023-01-06T12:30:54.790Z,14.87
2023-01-06T12:33:03.728Z,14.91
2023-01-06T12:35:14.238Z,14.88
2023-01-06T12:37:22.264Z,14.87
2023-01-06T12:39:33.307Z,14.86
2023-01-06T12:41:39.666Z,14.91
2023-01-06T12:43:49.691Z,15.01
2023-01-06T12:45:57.801Z,15.05
2023-01-06T12:48:07.815Z,15.09
2023-01-06T12:50:19.537Z,15.09
2023-01-06T12:52:26.746Z,15.03
2023-01-06T12:54:33.456Z,15.08
2023-01-06T12:56:52.161Z,15.14
2023-01-06T12:59:07.404Z,15.15
2023-01-06T13:01:16.409Z,15.16
2023-01-06T13:03:56.966Z,15.11
2023-01-06T13:06:24.957Z,15.07
2023-01-06T13:08:42.733Z,15.02
2023-01-06T13:10:48.568Z,14.91
2023-01-06T13:12:58.343Z,15.01
2023-01-06T13:15:07.714Z,15.00
2023-01-06T13:17:15.934Z,15.03
2023-01-06T13:19:30.678Z,15.05
2023-01-06T13:21:37.088Z,15.04
2023-01-06T13:28:15.421Z,15.02
2023-01-06T13:30:37.689Z,15.05
2023-01-06T13:32:52.495Z,15.08
2023-01-06T13:35:13.583Z,15.11
2023-01-06T13:37:35.107Z,15.13
2023-01-06T13:39:39.353Z,15.15
2023-01-06T13:41:45.911Z,15.18
2023-01-06T13:43:53.775Z,15.20
2023-01-06T13:45:58.916Z,15.07
2023-01-06T13:48:02.728Z,15.07
2023-01-06T13:50:05.660Z,15.13
2023-01-06T13:52:12.717Z,15.20
2023-01-06T13:54:51.427Z,15.20
2023-01-06T13:57:34.912Z,15.16
2023-01-06T13:59:48.777Z,15.20
2023-01-06T14:01:51.898Z,15.23
2023-01-06T17:47:49.219Z,14.15
2023-01-06T17:49:53.546Z,14.22
2023-01-06T17:51:56.102Z,14.25
2023-01-06T17:53:58.957Z,14.25
2023-01-06T17:56:02.367Z,14.23
2023-01-06T17:58:10.071Z,14.30
2023-01-06T18:00:21.613Z,14.26
2023-01-06T18:02:39.378Z,14.28
2023-01-06T18:04:42.657Z,14.33
2023-01-06T18:06:46.113Z,14.28
2023-01-06T18:08:49.986Z,14.22
2023-01-06T18:10:53.821Z,14.27
2023-01-06T18:12:56.778Z,14.22
2023-01-06T18:14:58.815Z,14.28
2023-01-06T18:17:15.835Z,14.23
2023-01-06T18:19:27.586Z,14.23
2023-01-06T18:21:36.727Z,14.27
2023-01-06T18:23:38.582Z,14.30
2023-01-06T18:25:41.750Z,14.27
2023-01-06T18:27:47.297Z,14.25
2023-01-06T18:29:56.492Z,14.23
2023-01-06T18:32:21.978Z,14.25
2023-01-06T18:34:41.339Z,14.17
2023-01-06T18:36:49.661Z,14.16
2023-01-06T18:38:51.770Z,14.23
2023-01-06T18:40:53.783Z,14.28
2023-01-06T18:43:01.946Z,14.25
2023-01-06T18:45:21.088Z,14.19
2023-01-06T18:47:23.790Z,14.21
2023-01-06T18:49:34.958Z,14.24
2023-01-06T18:51:43.828Z,14.24
2023-01-06T18:53:49.109Z,14.26
2023-01-06T18:55:53.129Z,14.20
2023-01-06T18:57:59.298Z,14.20
2023-01-06T19:00:38.277Z,14.19
2023-01-06T19:02:40.355Z,14.22
2023-01-06T19:04:42.356Z,14.18
2023-01-06T19:06:46.659Z,14.04
2023-01-06T19:08:50.282Z,14.04
2023-01-06T19:10:53.253Z,14.13
2023-01-06T19:12:59.133Z,14.17
2023-01-06T19:15:15.449Z,14.25
2023-01-06T19:17:22.372Z,14.33
2023-01-06T19:19:33.945Z,14.35
2023-01-06T19:21:46.123Z,14.35
2023-01-06T19:23:55.082Z,14.40
2023-01-06T19:26:04.800Z,14.37
2023-01-06T19:28:15.757Z,14.31
2023-01-06T19:30:38.418Z,14.37
2023-01-06T19:32:40.524Z,14.39
2023-01-06T19:34:42.587Z,14.43
2023-01-06T19:36:45.627Z,14.42
2023-01-06T19:38:49.306Z,14.42
2023-01-06T19:40:52.208Z,14.57
2023-01-06T19:42:57.971Z,14.58
2023-01-06T19:45:08.789Z,14.49
2023-01-06T19:47:17.453Z,14.40
2023-01-06T19:51:56.338Z,14.34
2023-01-06T19:54:17.613Z,14.33
2023-01-06T19:59:34.779Z,14.47
2023-01-06T20:01:45.487Z,14.45
2023-01-06T20:04:17.410Z,14.47
2023-01-06T20:06:28.098Z,14.47
2023-01-06T20:09:14.132Z,14.46
2023-01-06T20:11:27.931Z,14.49
2023-01-06T20:13:34.050Z,14.43
2023-01-06T20:15:45.546Z,14.37
2023-01-06T20:18:24.116Z,14.33
2023-01-06T23:00:36.754Z,13.69
2023-01-06T23:02:38.842Z,13.79
2023-01-06T23:04:40.748Z,13.83
2023-01-06T23:06:42.707Z,13.77
2023-01-06T23:08:59.262Z,13.80
2023-01-06T23:11:03.674Z,13.76
2023-01-06T23:13:05.940Z,13.77
2023-01-06T23:15:09.104Z,13.77
2023-01-06T23:17:12.879Z,13.81
2023-01-06T23:19:16.587Z,13.82
2023-01-06T23:21:21.829Z,13.81
2023-01-06T23:23:24.017Z,13.84
2023-01-06T23:25:25.831Z,13.86
2023-01-06T23:27:30.451Z,13.87
2023-01-06T23:29:33.183Z,13.92
2023-01-06T23:31:37.639Z,13.89
2023-01-06T23:33:42.083Z,13.88
2023-01-06T23:35:43.849Z,13.89
2023-01-06T23:37:45.530Z,13.91
2023-01-06T23:39:47.234Z,13.92
2023-01-06T23:41:48.960Z,13.92
2023-01-06T23:43:51.688Z,13.91
2023-01-06T23:45:53.389Z,13.88
2023-01-06T23:47:55.057Z,13.85
2023-01-06T23:49:58.683Z,13.82
2023-01-06T23:52:00.372Z,13.87
2023-01-06T23:54:03.707Z,13.88
2023-01-06T23:56:07.805Z,13.90
2023-01-06T23:58:09.530Z,13.86
